LYBE/BEG METAR and TAF weather

Enter ICAO airport designator
Example: see airport list
Station Type Date Time Source
LYBE METAR 2016/12/05 02:00 UTC NOAA

LYBE 050200Z VRB02KT 4000 BR NSC M04/M04 Q1033 NOSIG


Station Type Date Time Source
LYBE Decoded METAR 2016/12/05 02:00 UTC NOAA

Beograd / Surcin, Serbia and Montenegro (LYBE) 44-49N 020-17E 99M
Dec 04, 2016 - 09:00 PM EST / 2016.12.05 0200 UTC
Wind: Variable at 2 MPH (2 KT):0
Visibility: 2 mile(s):0
Weather: mist
Temperature: 24 F (-4 C)
Dew Point: 24 F (-4 C)
Relative Humidity: 100%
Pressure (altimeter): 30.50 in. Hg (1033 hPa)
ob: LYBE 050200Z VRB02KT 4000 BR NSC M04/M04 Q1033 NOSIG
cycle: 2

Station Type Date Time Source
LYBE TAF 2016/12/04 18:21 UTC NOAA

TAF LYBE 041700Z 0418/0518 06007KT CAVOK TX07/0513Z TNM03/0505Z
BECMG 0423/0501 3000 BR
TEMPO 0503/0507 0600 FZFG
BECMG 0508/0510 7000 NSW